createdAt,value
2018-03-01T00:09:05.559Z,8.50
2018-03-01T00:19:22.443Z,13.83
2018-03-01T00:29:31.964Z,13.80
2018-03-01T00:39:40.268Z,16.17
2018-03-01T00:49:52.969Z,16.20
2018-03-01T01:00:03.224Z,16.30
2018-03-01T01:10:13.475Z,16.37
2018-03-01T01:31:16.986Z,17.47
2018-03-01T01:42:09.949Z,16.47
2018-03-01T01:52:49.736Z,17.53
2018-03-01T02:03:25.103Z,17.57
2018-03-01T02:13:33.687Z,16.23
2018-03-01T02:23:44.408Z,15.73
2018-03-01T02:33:56.054Z,15.90
2018-03-01T02:44:06.857Z,14.87
2018-03-01T02:54:20.407Z,14.60
2018-03-01T03:04:30.504Z,14.10
2018-03-01T03:14:43.188Z,13.07
2018-03-01T03:25:15.207Z,14.10
2018-03-01T03:35:25.908Z,13.77
2018-03-01T03:45:36.557Z,13.23
2018-03-01T04:17:45.556Z,12.70
2018-03-01T04:27:59.192Z,13.17
2018-03-01T04:38:12.286Z,13.90
2018-03-01T04:48:23.199Z,12.87
2018-03-01T04:58:34.907Z,12.43
2018-03-01T05:08:49.052Z,12.93
2018-03-01T05:19:01.587Z,12.93
2018-03-01T05:29:10.372Z,14.10
2018-03-01T05:39:20.047Z,13.80
2018-03-01T05:49:31.176Z,15.03
2018-03-01T05:59:44.866Z,14.30
2018-03-01T06:09:54.094Z,14.33
2018-03-01T06:20:02.823Z,14.27
2018-03-01T06:30:11.997Z,13.80
2018-03-01T06:40:23.165Z,13.53
2018-03-01T06:50:34.178Z,13.90
2018-03-01T07:00:49.475Z,14.00
2018-03-01T07:10:59.788Z,13.80
2018-03-01T07:21:09.038Z,14.13
2018-03-01T07:31:18.276Z,13.77
2018-03-01T07:41:27.858Z,13.00
2018-03-01T07:51:36.951Z,13.80
2018-03-01T08:01:53.097Z,14.27
2018-03-01T08:12:01.634Z,14.13
2018-03-01T08:22:10.242Z,13.87
2018-03-01T08:32:24.948Z,14.03
2018-03-01T08:42:37.796Z,14.30
2018-03-01T08:52:46.852Z,13.97
2018-03-01T09:02:56.163Z,15.10
2018-03-01T09:13:07.975Z,15.37
2018-03-01T09:23:16.896Z,15.07
2018-03-01T09:33:29.496Z,15.43
2018-03-01T09:43:38.705Z,15.27
2018-03-01T09:53:47.820Z,14.57
2018-03-01T10:03:56.249Z,15.33
2018-03-01T10:14:06.748Z,13.73
2018-03-01T10:24:14.969Z,13.33
2018-03-01T10:34:24.284Z,13.07
2018-03-01T10:44:35.283Z,12.23
2018-03-01T10:54:44.701Z,12.17
2018-03-01T11:04:53.619Z,12.20
2018-03-01T11:15:02.581Z,11.50
2018-03-01T11:25:11.257Z,11.60
2018-03-01T11:35:21.313Z,10.93
2018-03-01T11:45:32.324Z,10.90
2018-03-01T11:55:42.122Z,10.80
2018-03-01T12:05:55.039Z,10.57
2018-03-01T12:16:07.289Z,10.60
2018-03-01T12:26:20.099Z,10.57
2018-03-01T12:36:33.119Z,11.27
2018-03-01T12:46:44.304Z,10.37
2018-03-01T12:56:55.046Z,10.63
2018-03-01T13:07:06.279Z,10.23
2018-03-01T13:17:14.853Z,10.37
2018-03-01T13:27:26.991Z,9.97
2018-03-01T13:37:36.320Z,9.70
2018-03-01T13:47:46.763Z,10.00
2018-03-01T14:12:31.402Z,9.40
2018-03-01T14:22:45.899Z,8.97
2018-03-01T14:32:59.407Z,9.30
2018-03-01T14:43:08.792Z,9.07
2018-03-01T14:53:20.944Z,8.80
2018-03-01T15:03:33.912Z,9.27
2018-03-01T15:13:44.667Z,8.97
2018-03-01T15:23:55.923Z,9.20
2018-03-01T15:34:12.026Z,8.23
2018-03-01T15:44:23.077Z,8.70
2018-03-01T15:54:32.361Z,8.67
2018-03-01T16:04:43.833Z,8.47
2018-03-01T16:14:53.145Z,8.23
2018-03-01T16:25:01.732Z,7.83
2018-03-01T16:35:12.817Z,8.23
2018-03-01T16:45:25.875Z,7.70
2018-03-01T16:55:34.910Z,8.00
2018-03-01T17:05:44.866Z,7.67
2018-03-01T17:15:53.800Z,7.03
2018-03-01T17:26:04.683Z,7.20
2018-03-01T17:36:13.114Z,6.97
2018-03-01T17:46:30.900Z,6.93
2018-03-01T17:56:40.754Z,6.50
2018-03-01T18:06:50.665Z,6.50
2018-03-01T18:16:59.175Z,6.60
2018-03-01T18:27:09.993Z,6.70
2018-03-01T18:37:19.999Z,6.13
2018-03-01T18:47:31.131Z,6.17
2018-03-01T18:58:12.164Z,6.33
2018-03-01T19:08:21.054Z,6.57
2018-03-01T19:18:30.355Z,5.93
2018-03-01T19:28:40.722Z,6.23
2018-03-01T19:38:49.242Z,6.03
2018-03-01T19:49:00.761Z,5.43
2018-03-01T19:59:10.738Z,5.90
2018-03-01T20:09:18.713Z,5.90
2018-03-01T20:19:29.255Z,5.27
2018-03-01T20:29:38.488Z,5.17
2018-03-01T20:39:47.913Z,5.40
2018-03-01T20:49:56.161Z,5.53
2018-03-01T21:00:05.408Z,5.40
2018-03-01T21:10:16.168Z,5.23
2018-03-01T21:20:26.214Z,5.57
2018-03-01T21:30:34.190Z,5.20
2018-03-01T21:40:44.426Z,5.30
2018-03-01T21:50:53.334Z,5.53
2018-03-01T22:01:02.963Z,4.90
2018-03-01T22:11:12.824Z,5.20
2018-03-01T22:21:27.005Z,5.10
2018-03-01T22:31:35.111Z,4.83
2018-03-01T22:41:43.790Z,4.70
2018-03-01T22:51:54.705Z,4.43
2018-03-01T23:02:02.868Z,4.80
2018-03-01T23:12:10.899Z,6.07
2018-03-01T23:22:22.330Z,6.10
2018-03-01T23:32:33.931Z,7.10
2018-03-01T23:42:43.044Z,6.00
2018-03-01T23:52:54.855Z,6.07
